createdAt,value
2022-09-23T00:01:02.555Z,82.00
2022-09-23T00:03:31.127Z,82.05
2022-09-23T00:06:10.758Z,82.20
2022-09-23T00:08:38.367Z,82.67
2022-09-23T00:11:07.763Z,82.06
2022-09-23T00:13:35.734Z,82.31
2022-09-23T00:16:04.859Z,83.06
2022-09-23T00:18:31.778Z,83.33
2022-09-23T00:20:58.558Z,84.06
2022-09-23T00:23:25.295Z,84.20
2022-09-23T00:25:59.740Z,83.64
2022-09-23T00:28:26.628Z,82.71
2022-09-23T00:30:53.386Z,82.52
2022-09-23T00:33:20.446Z,81.98
2022-09-23T00:35:47.812Z,82.72
2022-09-23T00:38:14.612Z,82.48
2022-09-23T00:40:46.165Z,83.04
2022-09-23T00:43:14.682Z,83.14
2022-09-23T00:45:47.497Z,83.73
2022-09-23T00:48:20.137Z,83.50
2022-09-23T00:50:54.278Z,83.59
2022-09-23T00:53:24.146Z,83.94
2022-09-23T00:55:57.315Z,84.66
2022-09-23T00:58:26.959Z,85.72
2022-09-23T01:00:54.595Z,85.56
2022-09-23T01:03:23.016Z,84.58
2022-09-23T01:05:50.355Z,83.33
2022-09-23T01:08:17.642Z,83.94
2022-09-23T01:11:03.461Z,83.71
2022-09-23T01:13:47.893Z,85.69
2022-09-23T01:16:33.459Z,85.25
2022-09-23T01:19:18.263Z,85.15
2022-09-23T01:22:05.013Z,84.25
2022-09-23T01:24:48.238Z,83.35
2022-09-23T01:27:23.256Z,82.96
2022-09-23T01:30:07.438Z,82.80
2022-09-23T01:32:43.283Z,82.41
2022-09-23T01:35:22.815Z,80.80
2022-09-23T01:38:08.403Z,82.11
2022-09-23T01:40:59.898Z,83.05
2022-09-23T01:43:57.225Z,81.25
2022-09-23T01:46:32.335Z,82.42
2022-09-23T01:49:37.351Z,79.74
2022-09-23T01:52:30.023Z,81.81
2022-09-23T01:55:11.215Z,82.80
2022-09-23T01:57:44.786Z,82.96
2022-09-23T02:00:17.785Z,82.36
2022-09-23T02:03:00.475Z,82.76
2022-09-23T02:05:33.908Z,80.69
2022-09-23T02:08:05.055Z,79.96
2022-09-23T02:10:36.066Z,81.40
2022-09-23T02:13:07.765Z,81.85
2022-09-23T02:15:40.408Z,81.73
2022-09-23T02:18:12.480Z,80.92
2022-09-23T02:20:43.406Z,81.47
2022-09-23T02:23:15.799Z,82.36
2022-09-23T02:25:42.503Z,83.83
2022-09-23T02:28:13.644Z,85.97
2022-09-23T02:30:49.215Z,87.13
2022-09-23T02:33:25.207Z,86.71
2022-09-23T02:35:55.537Z,85.88
2022-09-23T02:38:45.297Z,84.36
2022-09-23T02:41:22.654Z,83.21
2022-09-23T02:43:55.330Z,81.63
2022-09-23T02:46:23.263Z,81.60
2022-09-23T02:48:56.929Z,82.37
2022-09-23T02:51:27.979Z,83.75
2022-09-23T02:53:57.678Z,84.14
2022-09-23T02:56:24.631Z,83.41
2022-09-23T02:58:53.564Z,83.06
2022-09-23T03:01:40.818Z,83.18
2022-09-23T03:04:21.838Z,83.26
2022-09-23T03:06:54.483Z,82.57
2022-09-23T03:09:29.865Z,84.23
2022-09-23T03:12:11.268Z,84.39
2022-09-23T03:14:41.035Z,84.51
2022-09-23T03:17:31.796Z,83.29
2022-09-23T03:20:07.376Z,82.54
2022-09-23T03:22:39.943Z,83.34
2022-09-23T03:25:09.841Z,84.52
2022-09-23T03:27:37.350Z,84.53
2022-09-23T03:30:05.459Z,84.29
2022-09-23T03:32:33.030Z,83.53
2022-09-23T03:35:01.703Z,84.53
2022-09-23T03:38:02.719Z,83.54
2022-09-23T03:40:35.645Z,84.65
2022-09-23T03:43:04.695Z,84.13
2022-09-23T03:45:33.645Z,85.42
2022-09-23T03:48:01.488Z,85.45
2022-09-23T03:50:29.045Z,85.59
2022-09-23T03:52:56.060Z,85.96
2022-09-23T03:55:22.818Z,85.94
2022-09-23T03:57:49.606Z,84.83
2022-09-23T04:00:16.365Z,83.99
2022-09-23T04:02:43.934Z,83.91
2022-09-23T04:05:12.338Z,84.45
2022-09-23T04:07:39.539Z,83.65
2022-09-23T04:10:06.791Z,83.92
2022-09-23T04:12:33.532Z,84.57
2022-09-23T04:15:00.272Z,84.91
2022-09-23T04:17:27.083Z,84.22
2022-09-23T04:19:53.805Z,84.32
2022-09-23T04:22:20.591Z,83.99
2022-09-23T04:24:47.293Z,83.68
2022-09-23T04:27:14.080Z,83.79
2022-09-23T04:29:40.778Z,83.42
2022-09-23T04:32:07.564Z,83.39
2022-09-23T04:34:34.297Z,83.60
2022-09-23T04:37:01.008Z,84.64
2022-09-23T04:39:27.723Z,87.17
2022-09-23T04:41:54.534Z,86.32
2022-09-23T04:44:21.359Z,85.84
2022-09-23T04:46:49.386Z,86.74
2022-09-23T04:49:16.404Z,86.88
2022-09-23T04:51:43.766Z,86.67
2022-09-23T04:54:12.012Z,86.72
2022-09-23T04:56:39.823Z,86.20
2022-09-23T04:59:07.601Z,84.74
2022-09-23T05:01:36.362Z,83.66
2022-09-23T05:04:06.088Z,86.61
2022-09-23T05:06:37.207Z,85.65
2022-09-23T05:09:08.137Z,86.08
2022-09-23T05:11:34.979Z,85.64
2022-09-23T05:14:01.988Z,85.65
2022-09-23T05:16:29.464Z,84.10
2022-09-23T05:18:56.332Z,84.47
2022-09-23T05:21:24.572Z,84.43
2022-09-23T05:23:58.902Z,84.48
2022-09-23T05:26:28.008Z,86.44
2022-09-23T05:28:55.224Z,86.50
2022-09-23T05:31:24.176Z,84.21
2022-09-23T05:34:04.856Z,85.29
2022-09-23T05:36:37.967Z,85.01
2022-09-23T05:39:06.794Z,85.21
2022-09-23T05:41:34.098Z,84.86
2022-09-23T05:44:01.615Z,85.11
2022-09-23T05:46:30.000Z,85.55
2022-09-23T05:49:02.127Z,85.14
2022-09-23T05:51:31.372Z,84.60
2022-09-23T05:53:59.008Z,84.43
2022-09-23T05:56:27.552Z,84.82
2022-09-23T05:58:56.796Z,87.27
2022-09-23T06:01:25.581Z,86.34
2022-09-23T06:03:53.498Z,82.81
2022-09-23T06:06:26.160Z,84.80
2022-09-23T06:08:52.888Z,83.67
2022-09-23T06:11:21.483Z,84.59
2022-09-23T06:13:49.423Z,84.07
2022-09-23T06:16:16.567Z,82.69
2022-09-23T06:18:45.139Z,83.66
2022-09-23T06:21:16.802Z,81.76
2022-09-23T06:23:44.341Z,81.95
2022-09-23T06:26:13.658Z,82.07
2022-09-23T06:28:42.926Z,82.51
2022-09-23T06:31:16.844Z,82.98
2022-09-23T06:33:45.239Z,83.38
2022-09-23T06:36:16.193Z,83.14
2022-09-23T06:38:49.338Z,83.09
2022-09-23T06:41:16.241Z,83.42
2022-09-23T06:43:42.966Z,82.17
2022-09-23T06:46:15.984Z,81.94
2022-09-23T06:48:46.445Z,81.18
2022-09-23T06:51:19.226Z,83.18
2022-09-23T06:53:47.436Z,82.04
2022-09-23T06:56:17.388Z,82.20
2022-09-23T06:58:44.149Z,81.26
2022-09-23T07:01:16.147Z,82.65
2022-09-23T07:03:44.484Z,81.92
2022-09-23T07:06:11.630Z,82.53
2022-09-23T07:08:38.433Z,83.28
2022-09-23T07:11:07.253Z,82.98
2022-09-23T07:13:34.347Z,82.07
2022-09-23T07:16:02.245Z,81.01
2022-09-23T07:18:36.673Z,80.33
2022-09-23T07:21:08.964Z,81.72
2022-09-23T07:23:37.804Z,80.75
2022-09-23T07:26:05.397Z,80.55
2022-09-23T07:28:32.582Z,80.04
2022-09-23T07:31:04.532Z,79.11
2022-09-23T07:33:32.948Z,78.29
2022-09-23T07:36:05.395Z,78.09
2022-09-23T07:38:32.202Z,78.26
2022-09-23T07:41:10.308Z,78.19
2022-09-23T07:43:37.911Z,77.21
2022-09-23T07:46:08.364Z,77.26
2022-09-23T07:48:36.147Z,77.83
2022-09-23T07:51:15.348Z,76.91
2022-09-23T07:53:42.174Z,77.62
2022-09-23T07:56:08.890Z,76.37
2022-09-23T07:58:35.642Z,76.89
2022-09-23T08:01:10.316Z,77.73
2022-09-23T08:03:37.750Z,77.52
2022-09-23T08:06:14.003Z,76.27
2022-09-23T08:08:43.787Z,75.37
2022-09-23T08:11:13.382Z,76.41
2022-09-23T08:13:40.828Z,77.14
2022-09-23T08:16:07.675Z,77.55
2022-09-23T08:18:34.816Z,77.75
2022-09-23T08:21:01.835Z,77.55
2022-09-23T08:23:33.374Z,77.60
2022-09-23T08:26:02.498Z,77.31
2022-09-23T08:28:30.932Z,77.22
2022-09-23T08:30:57.744Z,76.55
2022-09-23T08:33:24.673Z,75.14
2022-09-23T08:35:52.442Z,74.47
2022-09-23T08:38:20.106Z,75.57
2022-09-23T08:40:49.669Z,75.18
2022-09-23T08:43:27.634Z,73.81
2022-09-23T08:45:56.145Z,73.37
2022-09-23T08:48:29.879Z,74.29
2022-09-23T08:51:02.625Z,76.01
2022-09-23T08:53:33.269Z,74.23
2022-09-23T08:56:03.491Z,74.32
2022-09-23T08:58:30.880Z,73.43
2022-09-23T09:01:23.776Z,74.34
2022-09-23T09:04:16.833Z,73.75
2022-09-23T09:06:54.058Z,74.63
2022-09-23T09:09:27.499Z,75.30
2022-09-23T09:12:08.995Z,74.60
2022-09-23T09:14:35.783Z,74.52
2022-09-23T09:17:08.209Z,74.51
2022-09-23T09:19:53.685Z,74.29
2022-09-23T09:22:34.222Z,73.71
2022-09-23T09:25:14.466Z,73.74
2022-09-23T09:27:41.528Z,74.24
2022-09-23T09:30:14.558Z,73.98
2022-09-23T09:33:17.827Z,74.48
2022-09-23T09:36:08.939Z,74.12
2022-09-23T09:38:36.434Z,73.49
2022-09-23T09:41:13.114Z,73.50
2022-09-23T09:43:48.500Z,73.59
2022-09-23T09:46:49.337Z,72.60
2022-09-23T09:49:25.526Z,72.98
2022-09-23T09:52:26.849Z,71.86
2022-09-23T09:54:53.562Z,70.70
2022-09-23T09:57:35.126Z,71.15
2022-09-23T10:00:21.731Z,71.49
2022-09-23T10:02:56.653Z,70.74
2022-09-23T10:05:26.889Z,68.01
2022-09-23T10:07:54.390Z,67.74
2022-09-23T10:10:33.673Z,68.95
2022-09-23T10:13:15.009Z,67.13
2022-09-23T10:15:44.904Z,67.06
2022-09-23T10:18:21.163Z,68.20
2022-09-23T10:20:48.373Z,67.18
2022-09-23T10:23:22.134Z,67.49
2022-09-23T10:26:00.343Z,66.10
2022-09-23T10:28:41.258Z,67.15
2022-09-23T10:31:12.662Z,65.63
2022-09-23T10:33:50.466Z,66.31
2022-09-23T10:36:18.140Z,65.91
2022-09-23T10:38:54.133Z,65.45
2022-09-23T10:41:53.292Z,63.43
2022-09-23T10:45:30.874Z,63.37
2022-09-23T10:48:02.263Z,62.15
2022-09-23T10:50:46.083Z,60.77
2022-09-23T10:53:36.541Z,62.08
2022-09-23T10:56:28.500Z,63.36
2022-09-23T10:59:21.522Z,62.58
2022-09-23T11:02:28.815Z,62.36
2022-09-23T11:05:19.042Z,64.36
2022-09-23T11:07:49.978Z,59.95
2022-09-23T11:10:45.839Z,59.86
2022-09-23T11:13:37.436Z,62.93
2022-09-23T11:16:31.708Z,61.24
2022-09-23T11:19:05.110Z,60.14
2022-09-23T11:22:20.175Z,59.59
2022-09-23T11:25:05.306Z,59.18
2022-09-23T11:27:54.350Z,60.46
2022-09-23T11:30:21.469Z,60.14
2022-09-23T11:32:56.893Z,59.76
2022-09-23T11:35:44.803Z,58.92
2022-09-23T11:38:15.381Z,57.85
2022-09-23T11:40:46.672Z,57.36
2022-09-23T11:43:21.717Z,58.62
2022-09-23T11:46:03.273Z,56.71
2022-09-23T11:48:49.971Z,56.63
2022-09-23T11:51:27.120Z,59.14
2022-09-23T11:54:00.707Z,56.76
2022-09-23T11:56:37.639Z,56.00
2022-09-23T11:59:40.471Z,54.08
2022-09-23T12:02:40.985Z,55.23
2022-09-23T12:05:17.903Z,55.05
2022-09-23T12:08:06.417Z,55.57
2022-09-23T12:10:54.732Z,55.95
2022-09-23T12:13:37.949Z,55.45
2022-09-23T12:16:32.645Z,57.23
2022-09-23T12:19:42.931Z,58.24
2022-09-23T12:22:18.592Z,56.28
2022-09-23T12:24:58.259Z,56.59
2022-09-23T12:27:37.974Z,56.59
2022-09-23T12:30:13.040Z,55.84
2022-09-23T12:32:39.901Z,53.79
2022-09-23T12:35:07.792Z,53.24
2022-09-23T12:37:35.640Z,51.41
2022-09-23T12:40:09.926Z,52.20
2022-09-23T12:42:41.517Z,49.91
2022-09-23T12:45:32.590Z,50.82
2022-09-23T12:48:01.085Z,49.86
2022-09-23T12:50:46.541Z,52.83
2022-09-23T12:53:34.938Z,50.73
2022-09-23T12:56:15.366Z,53.15
2022-09-23T12:58:42.196Z,50.98
2022-09-23T13:01:18.562Z,53.08
2022-09-23T13:04:17.275Z,53.42
2022-09-23T13:06:58.751Z,52.31
2022-09-23T13:09:31.160Z,53.27
2022-09-23T13:12:00.738Z,55.03
2022-09-23T13:14:29.083Z,56.28
2022-09-23T13:16:58.415Z,56.44
2022-09-23T13:19:28.256Z,58.34
2022-09-23T13:21:55.007Z,64.72
2022-09-23T13:24:31.311Z,68.30
2022-09-23T13:27:13.310Z,70.34
2022-09-23T13:29:45.487Z,70.89
2022-09-23T13:32:15.146Z,70.79
2022-09-23T13:34:44.324Z,70.20
2022-09-23T13:37:22.725Z,70.65
2022-09-23T13:39:50.285Z,69.81
2022-09-23T13:42:27.217Z,69.43
2022-09-23T13:44:57.860Z,69.14
2022-09-23T13:47:27.975Z,71.48
2022-09-23T13:49:54.877Z,72.52
2022-09-23T13:52:27.303Z,73.58
2022-09-23T13:54:54.300Z,73.43
2022-09-23T13:57:32.128Z,72.77
2022-09-23T14:00:13.952Z,70.38
2022-09-23T14:02:44.422Z,69.47
2022-09-23T14:05:12.728Z,66.05
2022-09-23T14:07:39.753Z,66.23
2022-09-23T14:10:08.167Z,57.82
2022-09-23T14:12:39.274Z,59.73
2022-09-23T14:15:07.313Z,56.01
2022-09-23T14:17:34.066Z,55.70
2022-09-23T14:20:01.110Z,55.15
2022-09-23T14:22:29.247Z,57.25
2022-09-23T14:24:56.792Z,60.68
2022-09-23T14:27:36.185Z,61.44
2022-09-23T14:30:04.050Z,61.52
2022-09-23T14:32:31.144Z,63.20
2022-09-23T14:35:01.077Z,59.90
2022-09-23T14:37:55.655Z,62.45
2022-09-23T14:40:26.305Z,61.80
2022-09-23T14:43:04.933Z,63.21
2022-09-23T14:45:37.744Z,63.11
2022-09-23T14:48:09.672Z,63.81
2022-09-23T14:50:36.960Z,64.61
2022-09-23T14:53:04.669Z,61.95
2022-09-23T14:55:31.695Z,58.13
2022-09-23T14:58:06.510Z,61.77
2022-09-23T15:00:33.290Z,62.54
2022-09-23T15:03:02.165Z,62.42
2022-09-23T15:05:40.119Z,64.82
2022-09-23T15:08:07.575Z,66.40
2022-09-23T15:10:40.075Z,65.98
2022-09-23T15:13:19.247Z,66.20
2022-09-23T15:15:46.441Z,66.78
2022-09-23T15:18:22.875Z,66.86
2022-09-23T15:20:52.344Z,64.92
2022-09-23T15:23:40.944Z,66.38
2022-09-23T15:26:47.270Z,66.75
2022-09-23T15:29:14.194Z,67.42
2022-09-23T15:31:41.362Z,68.15
2022-09-23T15:34:10.769Z,68.94
2022-09-23T15:36:38.610Z,68.86
2022-09-23T15:39:07.169Z,67.92
2022-09-23T15:41:34.048Z,68.70
2022-09-23T15:44:13.835Z,70.31
2022-09-23T15:46:45.732Z,69.48
2022-09-23T15:49:27.130Z,70.71
2022-09-23T15:51:54.510Z,70.35
2022-09-23T15:54:21.237Z,71.21
2022-09-23T15:56:48.010Z,70.59
2022-09-23T15:59:14.772Z,71.26
2022-09-23T16:01:42.390Z,70.81
2022-09-23T16:04:10.305Z,70.98
2022-09-23T16:06:37.645Z,71.04
2022-09-23T16:09:04.450Z,70.11
2022-09-23T16:11:34.058Z,70.85
2022-09-23T16:14:00.882Z,69.34
2022-09-23T16:16:29.141Z,69.31
2022-09-23T16:18:55.968Z,69.00
2022-09-23T16:21:25.253Z,70.17
2022-09-23T16:23:53.474Z,69.03
2022-09-23T16:26:21.734Z,69.07
2022-09-23T16:28:49.629Z,68.38
2022-09-23T16:31:16.918Z,69.14
2022-09-23T16:33:48.136Z,68.17
2022-09-23T16:36:23.656Z,69.05
2022-09-23T16:38:50.998Z,68.00
2022-09-23T16:41:17.940Z,69.32
2022-09-23T16:43:44.766Z,68.11
2022-09-23T16:46:13.072Z,68.84
2022-09-23T16:48:40.946Z,69.50
2022-09-23T16:51:08.946Z,68.18
2022-09-23T16:53:37.674Z,69.12
2022-09-23T16:56:09.546Z,69.55
2022-09-23T16:58:37.176Z,69.72
2022-09-23T17:01:25.066Z,68.83
2022-09-23T17:03:52.320Z,69.67
2022-09-23T17:06:19.453Z,69.76
2022-09-23T17:08:48.267Z,69.29
2022-09-23T17:11:16.590Z,69.26
2022-09-23T17:13:44.287Z,69.81
2022-09-23T17:16:21.645Z,71.01
2022-09-23T17:18:48.992Z,69.34
2022-09-23T17:21:15.843Z,70.25
2022-09-23T17:23:43.187Z,71.53
2022-09-23T17:26:10.126Z,72.26
2022-09-23T17:28:37.010Z,71.97
2022-09-23T17:31:05.670Z,71.07
2022-09-23T17:33:35.381Z,71.36
2022-09-23T17:36:07.270Z,71.01
2022-09-23T17:38:35.339Z,71.90
2022-09-23T17:41:02.374Z,72.27
2022-09-23T17:43:31.458Z,71.40
2022-09-23T17:46:06.669Z,71.07
2022-09-23T17:48:35.334Z,70.23
2022-09-23T17:51:05.082Z,69.29
2022-09-23T17:53:33.733Z,69.34
2022-09-23T17:56:04.264Z,68.66
2022-09-23T17:58:32.915Z,69.54
2022-09-23T18:01:00.068Z,69.56
2022-09-23T18:03:28.553Z,69.25
2022-09-23T18:06:05.050Z,69.71
2022-09-23T18:08:31.974Z,69.83
2022-09-23T18:10:58.706Z,69.65
2022-09-23T18:13:25.481Z,69.39
2022-09-23T18:15:52.275Z,69.70
2022-09-23T18:18:19.045Z,70.16
2022-09-23T18:20:46.066Z,70.05
2022-09-23T18:23:12.889Z,70.94
2022-09-23T18:25:40.174Z,71.07
2022-09-23T18:28:07.113Z,69.98
2022-09-23T18:30:33.854Z,70.51
2022-09-23T18:33:01.683Z,69.54
2022-09-23T18:35:28.555Z,71.37
2022-09-23T18:37:56.260Z,72.01
2022-09-23T18:40:23.084Z,71.86
2022-09-23T18:42:50.414Z,72.84
2022-09-23T18:45:17.205Z,71.58
2022-09-23T18:48:02.211Z,71.84
2022-09-23T18:50:43.172Z,71.91
2022-09-23T18:53:10.546Z,72.02
2022-09-23T18:55:37.931Z,71.83
2022-09-23T18:58:07.358Z,71.05
2022-09-23T19:00:35.031Z,72.91
2022-09-23T19:03:02.136Z,73.89
2022-09-23T19:05:29.141Z,72.99
2022-09-23T19:07:55.966Z,73.58
2022-09-23T19:10:22.676Z,72.66
2022-09-23T19:12:49.477Z,73.30
2022-09-23T19:15:16.589Z,73.88
2022-09-23T19:17:44.162Z,72.36
2022-09-23T19:20:10.907Z,73.00
2022-09-23T19:22:37.680Z,73.31
2022-09-23T19:25:04.710Z,73.51
2022-09-23T19:27:31.503Z,74.58
2022-09-23T19:29:58.241Z,74.56
2022-09-23T19:32:26.778Z,75.25
2022-09-23T19:34:53.719Z,75.66
2022-09-23T19:37:58.991Z,75.42
2022-09-23T19:40:25.800Z,74.66
2022-09-23T19:42:55.252Z,74.50
2022-09-23T19:45:22.598Z,75.00
2022-09-23T19:47:58.296Z,74.87
2022-09-23T19:50:25.133Z,76.09
2022-09-23T19:52:52.226Z,75.43
2022-09-23T19:55:20.098Z,74.65
2022-09-23T19:57:47.340Z,74.51
2022-09-23T20:00:15.259Z,73.87
2022-09-23T20:02:42.596Z,74.97
2022-09-23T20:05:11.990Z,75.39
2022-09-23T20:07:41.133Z,75.59
2022-09-23T20:10:11.836Z,73.47
2022-09-23T20:12:40.791Z,73.64
2022-09-23T20:15:08.136Z,72.33
2022-09-23T20:17:35.254Z,72.70
2022-09-23T20:20:02.237Z,72.31
2022-09-23T20:22:33.143Z,71.11
2022-09-23T20:25:01.566Z,69.39
2022-09-23T20:27:31.751Z,70.29
2022-09-23T20:29:59.421Z,69.31
2022-09-23T20:32:27.109Z,69.95
2022-09-23T20:34:54.428Z,70.21
2022-09-23T20:37:21.670Z,70.45
2022-09-23T20:39:48.484Z,70.89
2022-09-23T20:42:16.429Z,71.29
2022-09-23T20:44:44.950Z,72.04
2022-09-23T20:47:15.907Z,72.11
2022-09-23T20:49:44.296Z,72.20
2022-09-23T20:52:12.651Z,71.51
2022-09-23T20:54:39.829Z,72.49
2022-09-23T20:57:07.058Z,73.12
2022-09-23T20:59:34.614Z,73.14
2022-09-23T21:02:02.319Z,74.13
2022-09-23T21:04:30.260Z,72.87
2022-09-23T21:06:58.287Z,73.94
2022-09-23T21:09:27.489Z,73.98
2022-09-23T21:11:55.476Z,74.64
2022-09-23T21:14:23.147Z,76.56
2022-09-23T21:16:54.947Z,75.78
2022-09-23T21:19:21.839Z,76.86
2022-09-23T21:21:48.711Z,75.61
2022-09-23T21:24:51.097Z,76.51
2022-09-23T21:27:03.476Z,76.43
2022-09-23T21:29:30.260Z,77.16
2022-09-23T21:31:57.272Z,75.74
2022-09-23T21:34:28.168Z,75.63
2022-09-23T21:36:55.510Z,76.07
2022-09-23T21:39:22.262Z,75.68
2022-09-23T21:41:49.978Z,75.59
2022-09-23T21:44:16.753Z,75.42
2022-09-23T21:46:43.604Z,75.64
2022-09-23T21:49:10.369Z,73.80
2022-09-23T21:51:41.152Z,73.45
2022-09-23T21:54:12.203Z,72.42
2022-09-23T21:56:39.046Z,75.01
2022-09-23T21:59:07.744Z,74.62
2022-09-23T22:01:40.946Z,75.76
2022-09-23T22:04:14.513Z,76.70
2022-09-23T22:06:41.705Z,77.77
2022-09-23T22:09:12.557Z,78.27
2022-09-23T22:11:58.757Z,78.84
2022-09-23T22:14:26.552Z,77.71
2022-09-23T22:16:57.570Z,78.19
2022-09-23T22:19:26.968Z,78.18
2022-09-23T22:21:54.040Z,77.87
2022-09-23T22:24:21.025Z,78.60
2022-09-23T22:26:48.011Z,79.29
2022-09-23T22:29:34.470Z,79.35
2022-09-23T22:32:20.924Z,77.81
2022-09-23T22:34:51.363Z,76.75
2022-09-23T22:37:25.802Z,77.64
2022-09-23T22:39:53.260Z,78.23
2022-09-23T22:42:21.928Z,78.02
2022-09-23T22:44:49.200Z,77.85
2022-09-23T22:47:18.125Z,76.38
2022-09-23T22:49:46.408Z,77.59
2022-09-23T22:52:14.990Z,78.91
2022-09-23T22:54:42.351Z,78.68
2022-09-23T22:57:09.805Z,75.86
2022-09-23T22:59:37.527Z,77.26
2022-09-23T23:02:05.176Z,78.33
2022-09-23T23:04:32.260Z,79.82
2022-09-23T23:06:59.093Z,79.30
2022-09-23T23:09:25.985Z,79.36
2022-09-23T23:11:52.770Z,79.54
2022-09-23T23:14:19.812Z,78.86
2022-09-23T23:16:47.533Z,79.82
2022-09-23T23:19:17.178Z,78.48
2022-09-23T23:21:45.302Z,77.75
2022-09-23T23:24:20.840Z,79.00
2022-09-23T23:26:48.350Z,80.09
2022-09-23T23:29:16.461Z,78.99
2022-09-23T23:31:43.693Z,79.09
2022-09-23T23:34:16.283Z,79.62
2022-09-23T23:36:44.041Z,78.43
2022-09-23T23:39:11.078Z,79.20
2022-09-23T23:41:39.613Z,79.50
2022-09-23T23:44:07.842Z,80.81
2022-09-23T23:46:35.845Z,80.74
2022-09-23T23:49:03.291Z,81.54
2022-09-23T23:51:30.196Z,81.51
2022-09-23T23:53:58.915Z,81.48
2022-09-23T23:56:26.875Z,81.59
2022-09-23T23:58:55.476Z,80.78
